Katlin Olivia — WCY6622 — position and weather

sailwx.info

Track history (hours):
 
Tides and Currents Weather Stations Pressure Air Temp Water Temp Dewpoint Dewpoint Depression Visibility Wind Speed Wind Dir Waves Ship Positions

Katlin Olivia

Owner: LA CARRIERS, INC., CUT OFF, LA. More information available from US FCC via Universal Licensing System and Coast Guard Vessel Documentation Center.

Last reported at 2018-Feb-20 01:37 UTC. Time now 2018-Feb-20 05:28 UTC.
Position N 27°43' W 082°32'.

; draft 3 m.

Type: Towing. MMSI: 367005970.

Date/timePositionNaut miles runAvg speedWind from/ knotsBaromVisibWave heightAir tempDewpointWater temp
2018-Feb-20 01:37N 27°43' W 082°32'1 6.1
2018-Feb-20 01:30N 27°44' W 082°32'3 5.7
2018-Feb-20 01:00N 27°46' W 082°31'2 3.0
2018-Feb-20 00:28N 27°48' W 082°30'3 5.6
2018-Feb-20 00:00N 27°48' W 082°27'3 5.5
2018-Feb-19 23:30N 27°51' W 082°27'3 5.6
2018-Feb-19 23:00N 27°54' W 082°26'1 1.5
2018-Feb-19 22:30N 27°54' W 082°26'0 0.2
2018-Feb-19 22:00N 27°54' W 082°26'0 0.2
2018-Feb-19 21:30N 27°54' W 082°26'0 0.0
2018-Feb-19 21:00N 27°54' W 082°26'0 0.0
2018-Feb-19 20:30N 27°54' W 082°26'0 0.2
2018-Feb-19 20:00N 27°54' W 082°26'0 0.2
2018-Feb-19 19:30N 27°54' W 082°26'0 0.1
2018-Feb-19 19:00N 27°54' W 082°26'0 0.0
2018-Feb-19 18:30N 27°54' W 082°26'0 0.0
2018-Feb-19 18:00N 27°54' W 082°26'0 0.0
2018-Feb-19 17:30N 27°54' W 082°26'0 0.0
2018-Feb-19 17:00N 27°54' W 082°26'0 0.0
2018-Feb-19 16:30N 27°54' W 082°26'0 0.0
2018-Feb-19 16:00N 27°54' W 082°26'0 0.0
2018-Feb-19 15:30N 27°54' W 082°26'0 0.0
2018-Feb-19 15:00N 27°54' W 082°26'0 0.0
2018-Feb-19 14:30N 27°54' W 082°26'0 0.1
2018-Feb-19 14:00N 27°54' W 082°26'0 0.1
2018-Feb-19 13:30N 27°54' W 082°26'0 0.0
2018-Feb-19 13:00N 27°54' W 082°26'0 0.2
2018-Feb-19 12:30N 27°54' W 082°26'0 0.0
2018-Feb-19 12:00N 27°54' W 082°26'0 0.0
2018-Feb-19 11:30N 27°54' W 082°26'0 0.0
2018-Feb-19 11:00N 27°54' W 082°26'0 0.0
2018-Feb-19 10:30N 27°54' W 082°26'0 0.0
2018-Feb-19 10:00N 27°54' W 082°26'0 0.1
2018-Feb-19 09:30N 27°54' W 082°26'0 0.1
2018-Feb-19 09:00N 27°54' W 082°26'3 5.4
2018-Feb-19 08:30N 27°52' W 082°27'4 7.0
2018-Feb-19 08:00N 27°48' W 082°28'  
2018-Feb-14 09:16N 27°44' W 082°32'1 5.7
2018-Feb-14 09:00N 27°45' W 082°31'2 4.6
2018-Feb-14 08:30N 27°47' W 082°30'3 5.5
2018-Feb-14 08:00N 27°49' W 082°27'3 5.2
2018-Feb-14 07:30N 27°51' W 082°27'2 5.0
2018-Feb-14 07:00N 27°54' W 082°26'1 2.0
2018-Feb-14 06:30N 27°54' W 082°26'0 0.1
2018-Feb-14 06:00N 27°54' W 082°26'0 0.1
2018-Feb-14 05:30N 27°54' W 082°26'0 0.0
2018-Feb-14 05:00N 27°54' W 082°26'0 0.0
2018-Feb-14 04:30N 27°54' W 082°26'0 0.0
2018-Feb-14 04:00N 27°54' W 082°26'0 0.0
2018-Feb-14 03:30N 27°54' W 082°26'0 0.0
2018-Feb-14 03:00N 27°54' W 082°26'0 0.0
2018-Feb-14 02:30N 27°54' W 082°26'0 0.0
2018-Feb-14 02:00N 27°54' W 082°26'0 0.0
2018-Feb-14 01:30N 27°54' W 082°26'0 0.0
2018-Feb-14 01:00N 27°54' W 082°26'0 0.0
2018-Feb-14 00:30N 27°54' W 082°26'0 0.0
2018-Feb-14 00:00N 27°54' W 082°26'0 0.0
2018-Feb-13 23:30N 27°54' W 082°26'0 0.6
2018-Feb-13 23:00N 27°54' W 082°25'0 0.6
2018-Feb-13 22:30N 27°54' W 082°26'0 0.0
2018-Feb-13 22:00N 27°54' W 082°26'0 0.0
2018-Feb-13 21:30N 27°54' W 082°26'0 0.0
2018-Feb-13 21:00N 27°54' W 082°26'0 0.0
2018-Feb-13 20:30N 27°54' W 082°26'0 0.0
2018-Feb-13 20:00N 27°54' W 082°26'0 0.1
2018-Feb-13 19:30N 27°54' W 082°26'0 0.2
2018-Feb-13 19:00N 27°54' W 082°26'0 0.1
2018-Feb-13 18:30N 27°54' W 082°26'0 0.0
2018-Feb-13 18:00N 27°54' W 082°26'0 0.0
2018-Feb-13 17:30N 27°54' W 082°26'0 0.0
2018-Feb-13 17:00N 27°54' W 082°26'0 0.0
2018-Feb-13 16:30N 27°54' W 082°26'0 0.1
2018-Feb-13 16:00N 27°54' W 082°26'0 0.0
2018-Feb-13 15:30N 27°54' W 082°26'0 0.0
2018-Feb-13 15:00N 27°54' W 082°26'0 0.0
2018-Feb-13 14:30N 27°54' W 082°26'0 0.0
2018-Feb-13 14:00N 27°54' W 082°26'1 1.2
2018-Feb-13 13:30N 27°54' W 082°25'0 0.1
2018-Feb-13 13:00N 27°54' W 082°25'0 0.1
2018-Feb-13 12:30N 27°54' W 082°25'0 0.0
2018-Feb-13 12:00N 27°54' W 082°25'0 0.0
2018-Feb-13 11:30N 27°54' W 082°25'0 0.0
2018-Feb-13 11:00N 27°54' W 082°25'0 0.0
2018-Feb-13 10:30N 27°54' W 082°25'0 0.0
2018-Feb-13 10:00N 27°54' W 082°25'0 0.0
2018-Feb-13 09:30N 27°54' W 082°25'0 0.0
2018-Feb-13 09:00N 27°54' W 082°25'0 0.0
2018-Feb-13 08:30N 27°54' W 082°25'0 0.0
2018-Feb-13 08:00N 27°54' W 082°25'0 0.0
2018-Feb-13 07:30N 27°54' W 082°25'0 0.0
2018-Feb-13 07:00N 27°54' W 082°25'0 0.0
2018-Feb-13 06:30N 27°54' W 082°25'0 0.0
2018-Feb-13 06:00N 27°54' W 082°25'0 0.0
2018-Feb-13 05:30N 27°54' W 082°25'0 0.0
2018-Feb-13 05:00N 27°54' W 082°25'0 0.0
2018-Feb-13 04:30N 27°54' W 082°25'0 0.0
2018-Feb-13 04:00N 27°54' W 082°25'0 0.0
2018-Feb-13 03:30N 27°54' W 082°25'0 0.0
2018-Feb-13 03:00N 27°54' W 082°25'0 0.0
2018-Feb-13 02:30N 27°54' W 082°25'0 0.0
2018-Feb-13 02:00N 27°54' W 082°25'0 0.0
2018-Feb-13 01:30N 27°54' W 082°25'0 0.0
2018-Feb-13 01:00N 27°54' W 082°25'0 0.0
2018-Feb-13 00:30N 27°54' W 082°25'0 0.0
2018-Feb-13 00:00N 27°54' W 082°25'0 0.0
2018-Feb-12 23:30N 27°54' W 082°25'0 0.0
2018-Feb-12 23:00N 27°54' W 082°25'0 0.0
2018-Feb-12 22:30N 27°54' W 082°25'0 0.0
2018-Feb-12 22:00N 27°54' W 082°25'0 0.0
2018-Feb-12 21:30N 27°54' W 082°25'0 0.0
2018-Feb-12 21:00N 27°54' W 082°25'0 0.0
2018-Feb-12 20:30N 27°54' W 082°25'0 0.0
2018-Feb-12 20:00N 27°54' W 082°25'0 0.0
2018-Feb-12 19:30N 27°54' W 082°25'0 0.0
2018-Feb-12 19:00N 27°54' W 082°25'0 0.0
2018-Feb-12 18:30N 27°54' W 082°25'0 0.0
2018-Feb-12 18:00N 27°54' W 082°25'0 0.0
2018-Feb-12 17:30N 27°54' W 082°25'0 0.0
2018-Feb-12 16:59N 27°54' W 082°25'0 0.0
2018-Feb-12 16:30N 27°54' W 082°25'0 0.0
2018-Feb-12 16:00N 27°54' W 082°25'0 0.0
2018-Feb-12 15:30N 27°54' W 082°25'0 0.0
2018-Feb-12 13:01N 27°54' W 082°25'0 0.5
2018-Feb-12 13:00N 27°54' W 082°25'0 0.0
2018-Feb-12 12:30N 27°54' W 082°25'0 0.0
2018-Feb-12 12:00N 27°54' W 082°25'0 0.0
2018-Feb-12 11:30N 27°54' W 082°25'0 0.0
2018-Feb-12 11:00N 27°54' W 082°25'0 0.0
2018-Feb-12 10:30N 27°54' W 082°25'0 0.0
2018-Feb-12 10:00N 27°54' W 082°25'0 0.0
2018-Feb-12 09:30N 27°54' W 082°25'0 0.0
2018-Feb-12 09:00N 27°54' W 082°25'0 0.0
2018-Feb-12 08:30N 27°54' W 082°25'0 0.0
2018-Feb-12 08:00N 27°54' W 082°25'0 0.0
2018-Feb-12 07:30N 27°54' W 082°25'0 0.0
2018-Feb-12 07:00N 27°54' W 082°25'0 0.0
2018-Feb-12 06:30N 27°54' W 082°25'0 0.0
2018-Feb-12 06:00N 27°54' W 082°25'0 0.0
2018-Feb-12 05:30N 27°54' W 082°25'0 0.0
2018-Feb-12 05:00N 27°54' W 082°25'0 0.0
2018-Feb-12 04:30N 27°54' W 082°25'0 0.0
2018-Feb-12 04:00N 27°54' W 082°25'0 0.0
2018-Feb-12 03:30N 27°54' W 082°25'0 0.0
2018-Feb-12 03:00N 27°54' W 082°25'0 0.0
2018-Feb-12 02:30N 27°54' W 082°25'0 0.0
2018-Feb-12 02:00N 27°54' W 082°25'0 0.0
2018-Feb-12 01:30N 27°54' W 082°25'0 0.0
2018-Feb-12 01:00N 27°54' W 082°25'0 0.0
2018-Feb-12 00:30N 27°54' W 082°25'0 0.0
2018-Feb-12 00:00N 27°54' W 082°25'0 0.0
2018-Feb-11 23:30N 27°54' W 082°25'0 0.0
2018-Feb-11 23:00N 27°54' W 082°25'1 1.7
2018-Feb-11 22:30N 27°54' W 082°26'3 5.6
2018-Feb-11 22:00N 27°52' W 082°27'3 5.5
2018-Feb-11 21:30N 27°49' W 082°27'6 5.0
2018-Feb-11 20:18N 27°45' W 082°32'0 0.3
2018-Feb-11 19:53N 27°45' W 082°32'  
Track history (hours):
 
Tides and Currents Weather Stations Pressure Air Temp Water Temp Dewpoint Dewpoint Depression Visibility Wind Speed Wind Dir Waves Ship Positions

Katlin Olivia

Owner: LA CARRIERS, INC., CUT OFF, LA. More information available from US FCC via Universal Licensing System and Coast Guard Vessel Documentation Center.

Last reported at 2018-Feb-20 01:37 UTC. Time now 2018-Feb-20 05:28 UTC.
Position N 27°43' W 082°32'.

; draft 3 m.

Type: Towing. MMSI: 367005970.

Date/timePositionNaut miles runAvg speedWind from/ knotsBaromVisibWave heightAir tempDewpointWater temp
2018-Feb-20 01:37N 27°43' W 082°32'1 6.1
2018-Feb-20 01:30N 27°44' W 082°32'3 5.7
2018-Feb-20 01:00N 27°46' W 082°31'2 3.0
2018-Feb-20 00:28N 27°48' W 082°30'3 5.6
2018-Feb-20 00:00N 27°48' W 082°27'3 5.5
2018-Feb-19 23:30N 27°51' W 082°27'3 5.6
2018-Feb-19 23:00N 27°54' W 082°26'1 1.5
2018-Feb-19 22:30N 27°54' W 082°26'0 0.2
2018-Feb-19 22:00N 27°54' W 082°26'0 0.2
2018-Feb-19 21:30N 27°54' W 082°26'0 0.0
2018-Feb-19 21:00N 27°54' W 082°26'0 0.0
2018-Feb-19 20:30N 27°54' W 082°26'0 0.2
2018-Feb-19 20:00N 27°54' W 082°26'0 0.2
2018-Feb-19 19:30N 27°54' W 082°26'0 0.1
2018-Feb-19 19:00N 27°54' W 082°26'0 0.0
2018-Feb-19 18:30N 27°54' W 082°26'0 0.0
2018-Feb-19 18:00N 27°54' W 082°26'0 0.0
2018-Feb-19 17:30N 27°54' W 082°26'0 0.0
2018-Feb-19 17:00N 27°54' W 082°26'0 0.0
2018-Feb-19 16:30N 27°54' W 082°26'0 0.0
2018-Feb-19 16:00N 27°54' W 082°26'0 0.0
2018-Feb-19 15:30N 27°54' W 082°26'0 0.0
2018-Feb-19 15:00N 27°54' W 082°26'0 0.0
2018-Feb-19 14:30N 27°54' W 082°26'0 0.1
2018-Feb-19 14:00N 27°54' W 082°26'0 0.1
2018-Feb-19 13:30N 27°54' W 082°26'0 0.0
2018-Feb-19 13:00N 27°54' W 082°26'0 0.2
2018-Feb-19 12:30N 27°54' W 082°26'0 0.0
2018-Feb-19 12:00N 27°54' W 082°26'0 0.0
2018-Feb-19 11:30N 27°54' W 082°26'0 0.0
2018-Feb-19 11:00N 27°54' W 082°26'0 0.0
2018-Feb-19 10:30N 27°54' W 082°26'0 0.0
2018-Feb-19 10:00N 27°54' W 082°26'0 0.1
2018-Feb-19 09:30N 27°54' W 082°26'0 0.1
2018-Feb-19 09:00N 27°54' W 082°26'3 5.4
2018-Feb-19 08:30N 27°52' W 082°27'4 7.0
2018-Feb-19 08:00N 27°48' W 082°28'  
2018-Feb-14 09:16N 27°44' W 082°32'1 5.7
2018-Feb-14 09:00N 27°45' W 082°31'2 4.6
2018-Feb-14 08:30N 27°47' W 082°30'3 5.5
2018-Feb-14 08:00N 27°49' W 082°27'3 5.2
2018-Feb-14 07:30N 27°51' W 082°27'2 5.0
2018-Feb-14 07:00N 27°54' W 082°26'1 2.0
2018-Feb-14 06:30N 27°54' W 082°26'0 0.1
2018-Feb-14 06:00N 27°54' W 082°26'0 0.1
2018-Feb-14 05:30N 27°54' W 082°26'0 0.0
2018-Feb-14 05:00N 27°54' W 082°26'0 0.0
2018-Feb-14 04:30N 27°54' W 082°26'0 0.0
2018-Feb-14 04:00N 27°54' W 082°26'0 0.0
2018-Feb-14 03:30N 27°54' W 082°26'0 0.0
2018-Feb-14 03:00N 27°54' W 082°26'0 0.0
2018-Feb-14 02:30N 27°54' W 082°26'0 0.0
2018-Feb-14 02:00N 27°54' W 082°26'0 0.0
2018-Feb-14 01:30N 27°54' W 082°26'0 0.0
2018-Feb-14 01:00N 27°54' W 082°26'0 0.0
2018-Feb-14 00:30N 27°54' W 082°26'0 0.0
2018-Feb-14 00:00N 27°54' W 082°26'0 0.0
2018-Feb-13 23:30N 27°54' W 082°26'0 0.6
2018-Feb-13 23:00N 27°54' W 082°25'0 0.6
2018-Feb-13 22:30N 27°54' W 082°26'0 0.0
2018-Feb-13 22:00N 27°54' W 082°26'0 0.0
2018-Feb-13 21:30N 27°54' W 082°26'0 0.0
2018-Feb-13 21:00N 27°54' W 082°26'0 0.0
2018-Feb-13 20:30N 27°54' W 082°26'0 0.0
2018-Feb-13 20:00N 27°54' W 082°26'0 0.1
2018-Feb-13 19:30N 27°54' W 082°26'0 0.2
2018-Feb-13 19:00N 27°54' W 082°26'0 0.1
2018-Feb-13 18:30N 27°54' W 082°26'0 0.0
2018-Feb-13 18:00N 27°54' W 082°26'0 0.0
2018-Feb-13 17:30N 27°54' W 082°26'0 0.0
2018-Feb-13 17:00N 27°54' W 082°26'0 0.0
2018-Feb-13 16:30N 27°54' W 082°26'0 0.1
2018-Feb-13 16:00N 27°54' W 082°26'0 0.0
2018-Feb-13 15:30N 27°54' W 082°26'0 0.0
2018-Feb-13 15:00N 27°54' W 082°26'0 0.0
2018-Feb-13 14:30N 27°54' W 082°26'0 0.0
2018-Feb-13 14:00N 27°54' W 082°26'1 1.2
2018-Feb-13 13:30N 27°54' W 082°25'0 0.1
2018-Feb-13 13:00N 27°54' W 082°25'0 0.1
2018-Feb-13 12:30N 27°54' W 082°25'0 0.0
2018-Feb-13 12:00N 27°54' W 082°25'0 0.0
2018-Feb-13 11:30N 27°54' W 082°25'0 0.0
2018-Feb-13 11:00N 27°54' W 082°25'0 0.0
2018-Feb-13 10:30N 27°54' W 082°25'0 0.0
2018-Feb-13 10:00N 27°54' W 082°25'0 0.0
2018-Feb-13 09:30N 27°54' W 082°25'0 0.0
2018-Feb-13 09:00N 27°54' W 082°25'0 0.0
2018-Feb-13 08:30N 27°54' W 082°25'0 0.0
2018-Feb-13 08:00N 27°54' W 082°25'0 0.0
2018-Feb-13 07:30N 27°54' W 082°25'0 0.0
2018-Feb-13 07:00N 27°54' W 082°25'0 0.0
2018-Feb-13 06:30N 27°54' W 082°25'0 0.0
2018-Feb-13 06:00N 27°54' W 082°25'0 0.0
2018-Feb-13 05:30N 27°54' W 082°25'0 0.0
2018-Feb-13 05:00N 27°54' W 082°25'0 0.0
2018-Feb-13 04:30N 27°54' W 082°25'0 0.0
2018-Feb-13 04:00N 27°54' W 082°25'0 0.0
2018-Feb-13 03:30N 27°54' W 082°25'0 0.0
2018-Feb-13 03:00N 27°54' W 082°25'0 0.0
2018-Feb-13 02:30N 27°54' W 082°25'0 0.0
2018-Feb-13 02:00N 27°54' W 082°25'0 0.0
2018-Feb-13 01:30N 27°54' W 082°25'0 0.0
2018-Feb-13 01:00N 27°54' W 082°25'0 0.0
2018-Feb-13 00:30N 27°54' W 082°25'0 0.0
2018-Feb-13 00:00N 27°54' W 082°25'0 0.0
2018-Feb-12 23:30N 27°54' W 082°25'0 0.0
2018-Feb-12 23:00N 27°54' W 082°25'0 0.0
2018-Feb-12 22:30N 27°54' W 082°25'0 0.0
2018-Feb-12 22:00N 27°54' W 082°25'0 0.0
2018-Feb-12 21:30N 27°54' W 082°25'0 0.0
2018-Feb-12 21:00N 27°54' W 082°25'0 0.0
2018-Feb-12 20:30N 27°54' W 082°25'0 0.0
2018-Feb-12 20:00N 27°54' W 082°25'0 0.0
2018-Feb-12 19:30N 27°54' W 082°25'0 0.0
2018-Feb-12 19:00N 27°54' W 082°25'0 0.0
2018-Feb-12 18:30N 27°54' W 082°25'0 0.0
2018-Feb-12 18:00N 27°54' W 082°25'0 0.0
2018-Feb-12 17:30N 27°54' W 082°25'0 0.0
2018-Feb-12 16:59N 27°54' W 082°25'0 0.0
2018-Feb-12 16:30N 27°54' W 082°25'0 0.0
2018-Feb-12 16:00N 27°54' W 082°25'0 0.0
2018-Feb-12 15:30N 27°54' W 082°25'0 0.0
2018-Feb-12 13:01N 27°54' W 082°25'0 0.5
2018-Feb-12 13:00N 27°54' W 082°25'0 0.0
2018-Feb-12 12:30N 27°54' W 082°25'0 0.0
2018-Feb-12 12:00N 27°54' W 082°25'0 0.0
2018-Feb-12 11:30N 27°54' W 082°25'0 0.0
2018-Feb-12 11:00N 27°54' W 082°25'0 0.0
2018-Feb-12 10:30N 27°54' W 082°25'0 0.0
2018-Feb-12 10:00N 27°54' W 082°25'0 0.0
2018-Feb-12 09:30N 27°54' W 082°25'0 0.0
2018-Feb-12 09:00N 27°54' W 082°25'0 0.0
2018-Feb-12 08:30N 27°54' W 082°25'0 0.0
2018-Feb-12 08:00N 27°54' W 082°25'0 0.0
2018-Feb-12 07:30N 27°54' W 082°25'0 0.0
2018-Feb-12 07:00N 27°54' W 082°25'0 0.0
2018-Feb-12 06:30N 27°54' W 082°25'0 0.0
2018-Feb-12 06:00N 27°54' W 082°25'0 0.0
2018-Feb-12 05:30N 27°54' W 082°25'0 0.0
2018-Feb-12 05:00N 27°54' W 082°25'0 0.0
2018-Feb-12 04:30N 27°54' W 082°25'0 0.0
2018-Feb-12 04:00N 27°54' W 082°25'0 0.0
2018-Feb-12 03:30N 27°54' W 082°25'0 0.0
2018-Feb-12 03:00N 27°54' W 082°25'0 0.0
2018-Feb-12 02:30N 27°54' W 082°25'0 0.0
2018-Feb-12 02:00N 27°54' W 082°25'0 0.0
2018-Feb-12 01:30N 27°54' W 082°25'0 0.0
2018-Feb-12 01:00N 27°54' W 082°25'0 0.0
2018-Feb-12 00:30N 27°54' W 082°25'0 0.0
2018-Feb-12 00:00N 27°54' W 082°25'0 0.0
2018-Feb-11 23:30N 27°54' W 082°25'0 0.0
2018-Feb-11 23:00N 27°54' W 082°25'1 1.7
2018-Feb-11 22:30N 27°54' W 082°26'3 5.6
2018-Feb-11 22:00N 27°52' W 082°27'3 5.5
2018-Feb-11 21:30N 27°49' W 082°27'6 5.0
2018-Feb-11 20:18N 27°45' W 082°32'0 0.3
2018-Feb-11 19:53N 27°45' W 082°32'  

Dump ship's entire track history